Time;durP1;ratioP1;P1;durP2;ratioP2;P2;SDS_P1;SDS_P2;PMS_P1;PMS_P2;Temp;Humidity;BMP_temperature;BMP_pressure;BME280_temperature;BME280_humidity;BME280_pressure;Samples;Min_cycle;Max_cycle;Signal;HPM_P1;HPM_P2
2022/08/27 00:01:57;;;;;;;11.27;4.20;;;;;;;;;;5036611;28;20531;-71
2022/08/27 00:04:23;;;;;;;8.93;4.07;;;;;;;;;;5042066;28;20064;-72
2022/08/27 00:06:50;;;;;;;6.63;4.03;;;;;;;;;;5049663;28;20044;-71
2022/08/27 00:09:16;;;;;;;10.80;4.78;;;;;;;;;;5045945;28;20094;-71
2022/08/27 00:11:43;;;;;;;11.40;4.50;;;;;;;;;;5041919;28;20456;-71
2022/08/27 00:14:10;;;;;;;7.85;3.90;;;;;;;;;;5039450;28;20041;-71
2022/08/27 00:16:36;;;;;;;11.75;4.40;;;;;;;;;;5044746;28;20053;-71
2022/08/27 00:19:02;;;;;;;6.75;3.40;;;;;;;;;;5041222;28;20041;-71
2022/08/27 00:21:28;;;;;;;7.35;3.72;;;;;;;;;;5047057;28;20063;-71
2022/08/27 00:23:55;;;;;;;9.20;3.63;;;;;;;;;;5052964;28;20379;-71
2022/08/27 00:26:21;;;;;;;9.93;4.10;;;;;;;;;;5050142;28;20043;-72
2022/08/27 00:28:47;;;;;;;6.75;3.85;;;;;;;;;;5052301;28;20147;-72
2022/08/27 00:31:14;;;;;;;7.72;3.47;;;;;;;;;;5044413;28;20041;-71
2022/08/27 00:33:40;;;;;;;6.63;3.50;;;;;;;;;;5044656;28;20082;-71
2022/08/27 00:36:07;;;;;;;8.20;3.83;;;;;;;;;;5049585;28;21902;-72
2022/08/27 00:38:34;;;;;;;8.55;3.75;;;;;;;;;;5044651;28;20430;-71
2022/08/27 00:41:00;;;;;;;10.57;4.35;;;;;;;;;;5031077;28;20049;-72
2022/08/27 00:43:30;;;;;;;12.10;4.10;;;;;;;;;;5037595;28;20597;-71
2022/08/27 00:46:01;;;;;;;7.57;4.07;;;;;;;;;;5038722;28;20194;-71
2022/08/27 00:48:29;;;;;;;10.05;3.88;;;;;;;;;;5047580;28;20571;-72
2022/08/27 00:50:55;;;;;;;7.70;3.47;;;;;;;;;;5044328;28;20535;-71
2022/08/27 00:53:24;;;;;;;8.20;4.15;;;;;;;;;;5050592;28;20460;-72
2022/08/27 00:55:56;;;;;;;6.47;3.38;;;;;;;;;;5042320;28;20178;-72
2022/08/27 00:58:28;;;;;;;8.10;3.97;;;;;;;;;;5052102;28;20124;-72
2022/08/27 01:00:55;;;;;;;8.15;3.80;;;;;;;;;;5047797;28;20063;-72
2022/08/27 01:03:21;;;;;;;7.65;4.57;;;;;;;;;;5046476;28;20045;-71
2022/08/27 01:05:49;;;;;;;5.88;3.58;;;;;;;;;;5038301;28;20503;-71
2022/08/27 01:08:18;;;;;;;7.63;3.42;;;;;;;;;;5043829;28;20044;-71
2022/08/27 01:10:45;;;;;;;10.52;4.65;;;;;;;;;;5037826;28;20060;-71
2022/08/27 01:13:12;;;;;;;10.10;3.53;;;;;;;;;;5030115;28;20163;-71
2022/08/27 01:15:39;;;;;;;7.78;3.60;;;;;;;;;;5041743;28;20778;-71
2022/08/27 01:18:06;;;;;;;7.97;3.65;;;;;;;;;;5042782;28;20037;-71
2022/08/27 01:20:52;;;;;;;8.90;3.67;;;;;;;;;;5043606;28;20040;-68
2022/08/27 01:23:24;;;;;;;7.32;3.92;;;;;;;;;;5046301;28;20048;-71
2022/08/27 01:25:51;;;;;;;11.73;4.00;;;;;;;;;;5046406;28;20063;-71
2022/08/27 01:28:18;;;;;;;7.30;3.80;;;;;;;;;;5040903;28;20095;-71
2022/08/27 01:30:44;;;;;;;9.27;4.63;;;;;;;;;;5034425;28;20045;-71
2022/08/27 01:33:13;;;;;;;8.38;4.35;;;;;;;;;;5035123;28;20049;-71
2022/08/27 01:35:39;;;;;;;9.98;3.97;;;;;;;;;;5037174;28;20498;-71
2022/08/27 01:38:06;;;;;;;9.00;3.80;;;;;;;;;;5039488;28;20056;-71
2022/08/27 01:40:32;;;;;;;8.50;4.20;;;;;;;;;;5035404;28;20041;-71
2022/08/27 01:42:58;;;;;;;8.18;4.10;;;;;;;;;;5042145;28;20087;-71
2022/08/27 01:45:28;;;;;;;10.75;4.63;;;;;;;;;;5037259;28;20174;-71
2022/08/27 01:47:54;;;;;;;7.53;3.80;;;;;;;;;;5027475;28;20055;-72
2022/08/27 01:50:24;;;;;;;9.60;3.85;;;;;;;;;;5042409;28;20048;-71
2022/08/27 01:52:50;;;;;;;11.20;4.30;;;;;;;;;;5059173;28;20053;-71
2022/08/27 01:55:18;;;;;;;7.68;4.15;;;;;;;;;;5031568;28;20049;-71
2022/08/27 01:57:44;;;;;;;9.25;3.70;;;;;;;;;;5037547;28;20350;-71
2022/08/27 02:00:12;;;;;;;7.10;3.72;;;;;;;;;;5034570;28;20044;-70
2022/08/27 02:02:40;;;;;;;7.70;4.00;;;;;;;;;;5034741;28;20049;-71
2022/08/27 02:05:06;;;;;;;6.43;2.97;;;;;;;;;;5044439;28;20049;-71
2022/08/27 02:07:32;;;;;;;5.78;2.92;;;;;;;;;;5035634;28;20054;-71
2022/08/27 02:09:58;;;;;;;6.68;3.38;;;;;;;;;;5039213;28;20591;-71
2022/08/27 02:12:25;;;;;;;7.75;3.67;;;;;;;;;;5037368;28;21143;-71
2022/08/27 02:14:51;;;;;;;6.38;3.17;;;;;;;;;;5038188;28;20073;-72
2022/08/27 02:17:17;;;;;;;6.85;3.50;;;;;;;;;;5036014;28;20048;-71
2022/08/27 02:19:44;;;;;;;6.88;3.35;;;;;;;;;;5034926;28;20076;-71
2022/08/27 02:22:10;;;;;;;7.65;3.92;;;;;;;;;;5038700;28;20085;-71
2022/08/27 02:24:36;;;;;;;7.75;4.63;;;;;;;;;;5040442;28;20052;-71
2022/08/27 02:27:02;;;;;;;9.05;4.35;;;;;;;;;;5041493;28;20085;-71
2022/08/27 02:29:28;;;;;;;8.88;4.57;;;;;;;;;;5038587;28;20383;-72
2022/08/27 02:31:54;;;;;;;10.45;4.30;;;;;;;;;;5031090;28;21102;-71
2022/08/27 02:34:22;;;;;;;8.90;4.70;;;;;;;;;;5036570;28;20146;-71
2022/08/27 02:36:48;;;;;;;8.60;4.15;;;;;;;;;;5035429;28;20146;-71
2022/08/27 02:39:14;;;;;;;9.25;3.72;;;;;;;;;;5037965;28;20047;-71
2022/08/27 02:41:40;;;;;;;8.68;3.90;;;;;;;;;;5042532;28;20132;-71
2022/08/27 02:44:06;;;;;;;7.25;3.60;;;;;;;;;;5037628;28;20171;-71
2022/08/27 02:46:33;;;;;;;9.23;4.18;;;;;;;;;;5041797;28;20044;-72
2022/08/27 02:48:59;;;;;;;9.15;4.18;;;;;;;;;;5037513;28;20591;-71
2022/08/27 02:51:25;;;;;;;7.30;3.97;;;;;;;;;;5039017;28;20558;-71
2022/08/27 02:53:51;;;;;;;11.18;4.45;;;;;;;;;;5044157;28;20040;-71
2022/08/27 02:56:17;;;;;;;10.05;4.18;;;;;;;;;;5049997;28;20121;-71
2022/08/27 02:58:44;;;;;;;8.52;3.75;;;;;;;;;;5052996;28;20063;-72
2022/08/27 03:01:11;;;;;;;10.55;3.97;;;;;;;;;;5047813;28;20653;-71
2022/08/27 03:03:37;;;;;;;5.60;3.03;;;;;;;;;;5054772;28;20387;-71
2022/08/27 03:06:03;;;;;;;8.57;3.60;;;;;;;;;;5045122;28;20049;-71
2022/08/27 03:08:30;;;;;;;9.30;3.72;;;;;;;;;;5054414;28;20052;-71
2022/08/27 03:10:56;;;;;;;11.65;3.30;;;;;;;;;;5038450;28;20037;-71
2022/08/27 03:13:22;;;;;;;7.57;3.42;;;;;;;;;;5050719;28;20052;-71
2022/08/27 03:15:49;;;;;;;7.05;3.10;;;;;;;;;;5048139;28;20088;-71
2022/08/27 03:18:18;;;;;;;5.30;3.08;;;;;;;;;;5050938;28;20040;-71
2022/08/27 03:20:48;;;;;;;10.55;3.10;;;;;;;;;;5043026;28;20041;-71
2022/08/27 03:23:14;;;;;;;8.25;3.47;;;;;;;;;;5042283;28;20075;-71
2022/08/27 03:25:43;;;;;;;7.15;3.58;;;;;;;;;;5040772;28;20037;-71
2022/08/27 03:28:13;;;;;;;5.82;2.88;;;;;;;;;;5037759;28;20048;-71
2022/08/27 03:30:40;;;;;;;7.32;2.97;;;;;;;;;;5043578;28;20070;-71
2022/08/27 03:33:07;;;;;;;5.38;2.63;;;;;;;;;;5041285;28;20046;-71
2022/08/27 03:35:33;;;;;;;6.47;3.08;;;;;;;;;;5060301;28;20149;-71
2022/08/27 03:38:01;;;;;;;9.02;3.42;;;;;;;;;;5034026;28;20045;-71
2022/08/27 03:40:27;;;;;;;7.90;3.38;;;;;;;;;;5034375;28;20052;-71
2022/08/27 03:42:53;;;;;;;7.90;2.97;;;;;;;;;;5043407;28;20117;-71
2022/08/27 03:45:20;;;;;;;8.85;3.20;;;;;;;;;;5040562;28;20060;-72
2022/08/27 03:47:46;;;;;;;9.43;3.15;;;;;;;;;;5039112;28;20057;-71
2022/08/27 03:50:12;;;;;;;6.15;3.00;;;;;;;;;;5039192;28;20087;-71
2022/08/27 03:52:38;;;;;;;6.75;3.30;;;;;;;;;;5036276;28;20071;-71
2022/08/27 03:55:05;;;;;;;9.52;2.70;;;;;;;;;;5033689;28;20507;-71
2022/08/27 03:57:32;;;;;;;9.00;3.08;;;;;;;;;;5046177;28;20044;-71
2022/08/27 03:59:58;;;;;;;8.48;3.17;;;;;;;;;;5043759;28;20037;-71
2022/08/27 04:02:24;;;;;;;7.65;3.08;;;;;;;;;;5041068;28;20156;-71
2022/08/27 04:04:51;;;;;;;7.13;3.03;;;;;;;;;;5045458;28;20646;-71
2022/08/27 04:07:17;;;;;;;5.90;3.05;;;;;;;;;;5037973;28;20113;-71
2022/08/27 04:09:44;;;;;;;5.28;3.15;;;;;;;;;;5049153;28;20040;-72
2022/08/27 04:12:10;;;;;;;6.82;3.25;;;;;;;;;;5034676;28;20391;-71
2022/08/27 04:14:37;;;;;;;7.82;2.90;;;;;;;;;;5040293;28;20052;-71
2022/08/27 04:17:03;;;;;;;5.13;2.97;;;;;;;;;;5034869;28;20079;-71
2022/08/27 04:19:31;;;;;;;6.72;3.05;;;;;;;;;;5035824;28;20056;-71
2022/08/27 04:22:00;;;;;;;7.18;3.03;;;;;;;;;;5035335;28;20072;-71
2022/08/27 04:24:26;;;;;;;6.03;3.05;;;;;;;;;;5037643;28;20041;-71
2022/08/27 04:26:52;;;;;;;6.10;2.85;;;;;;;;;;5039143;28;20084;-71
2022/08/27 04:29:18;;;;;;;6.43;3.17;;;;;;;;;;5036815;28;20036;-71
2022/08/27 04:31:44;;;;;;;7.60;3.75;;;;;;;;;;5040495;28;20076;-71
2022/08/27 04:34:10;;;;;;;6.30;3.60;;;;;;;;;;5058246;28;20087;-71
2022/08/27 04:36:37;;;;;;;7.50;3.60;;;;;;;;;;5040962;28;20056;-71
2022/08/27 04:39:03;;;;;;;6.38;3.15;;;;;;;;;;5041951;28;20052;-71
2022/08/27 04:41:32;;;;;;;6.03;3.20;;;;;;;;;;5048706;28;20044;-72
2022/08/27 04:44:02;;;;;;;6.90;3.25;;;;;;;;;;5046896;28;20049;-71
2022/08/27 04:46:29;;;;;;;6.53;2.78;;;;;;;;;;5036873;28;20049;-71
2022/08/27 04:48:57;;;;;;;6.63;3.10;;;;;;;;;;5041478;28;20361;-71
2022/08/27 04:51:23;;;;;;;5.70;2.67;;;;;;;;;;5041947;28;20045;-71
2022/08/27 04:53:50;;;;;;;9.30;3.08;;;;;;;;;;5042034;28;20080;-71
2022/08/27 04:56:17;;;;;;;4.70;3.00;;;;;;;;;;5038475;28;20048;-71
2022/08/27 04:58:44;;;;;;;5.50;2.70;;;;;;;;;;5038909;28;20079;-71
2022/08/27 05:01:15;;;;;;;6.80;3.08;;;;;;;;;;5032774;28;20128;-71
2022/08/27 05:03:41;;;;;;;11.52;3.85;;;;;;;;;;5042373;28;20527;-71
2022/08/27 05:06:07;;;;;;;8.52;2.92;;;;;;;;;;5038849;28;20037;-71
2022/08/27 05:08:34;;;;;;;7.65;3.13;;;;;;;;;;5034953;28;20124;-71
2022/08/27 05:11:00;;;;;;;6.18;3.20;;;;;;;;;;5035876;28;20145;-71
2022/08/27 05:13:29;;;;;;;6.05;2.85;;;;;;;;;;5044195;28;20206;-71
2022/08/27 05:15:58;;;;;;;10.93;3.72;;;;;;;;;;5044133;28;20056;-71
2022/08/27 05:18:25;;;;;;;7.68;3.30;;;;;;;;;;5038841;28;20037;-72
2022/08/27 05:20:51;;;;;;;8.00;3.17;;;;;;;;;;5031969;28;20102;-71
2022/08/27 05:23:17;;;;;;;7.68;2.83;;;;;;;;;;5043554;28;20059;-71
2022/08/27 05:25:45;;;;;;;7.85;2.90;;;;;;;;;;5040682;28;20053;-71
2022/08/27 05:28:12;;;;;;;10.32;2.88;;;;;;;;;;5040674;28;20647;-71
2022/08/27 05:30:40;;;;;;;7.57;2.90;;;;;;;;;;5043435;28;20098;-71
2022/08/27 05:33:07;;;;;;;5.95;2.95;;;;;;;;;;5045667;28;20053;-71
2022/08/27 05:35:41;;;;;;;7.57;2.80;;;;;;;;;;5046467;28;20044;-71
2022/08/27 05:38:07;;;;;;;;;;;;;;;;;;5033777;28;20100;-71
2022/08/27 05:40:33;;;;;;;7.35;2.83;;;;;;;;;;5037940;28;20021;-69
2022/08/27 05:42:59;;;;;;;10.80;3.85;;;;;;;;;;5036758;28;20099;-69
2022/08/27 05:45:25;;;;;;;6.97;2.95;;;;;;;;;;5039937;28;20052;-69
2022/08/27 05:47:51;;;;;;;7.03;2.33;;;;;;;;;;5035273;28;20258;-70
2022/08/27 05:50:18;;;;;;;12.77;3.72;;;;;;;;;;5033668;28;20394;-69
2022/08/27 05:52:44;;;;;;;6.57;2.35;;;;;;;;;;5039130;28;20411;-69
2022/08/27 05:55:11;;;;;;;6.82;2.65;;;;;;;;;;5042629;28;20040;-69
2022/08/27 05:57:37;;;;;;;15.02;2.88;;;;;;;;;;5042742;28;20061;-69
2022/08/27 06:02:49;;;;;;;9.45;2.92;;;;;;;;;;5072251;28;20052;-69
2022/08/27 06:05:15;;;;;;;8.98;2.33;;;;;;;;;;5041751;28;20049;-69
2022/08/27 06:07:42;;;;;;;10.45;2.60;;;;;;;;;;5036964;28;20247;-68
2022/08/27 06:10:08;;;;;;;6.97;2.60;;;;;;;;;;5037889;28;20057;-68
2022/08/27 06:12:35;;;;;;;7.82;2.55;;;;;;;;;;5042641;28;20557;-69
2022/08/27 06:15:01;;;;;;;8.07;2.40;;;;;;;;;;5046683;28;20040;-68
2022/08/27 06:17:28;;;;;;;7.95;2.63;;;;;;;;;;5054717;28;20558;-67
2022/08/27 06:19:54;;;;;;;6.03;2.28;;;;;;;;;;5043110;28;20052;-67
2022/08/27 06:22:21;;;;;;;8.05;2.22;;;;;;;;;;5045700;28;20071;-68
2022/08/27 06:24:47;;;;;;;8.05;2.33;;;;;;;;;;5052755;28;20495;-67
2022/08/27 06:27:15;;;;;;;13.10;2.20;;;;;;;;;;5052097;28;20103;-67
2022/08/27 06:29:41;;;;;;;7.53;2.17;;;;;;;;;;5045256;28;20843;-67
2022/08/27 06:32:08;;;;;;;8.30;2.40;;;;;;;;;;5047987;28;20040;-67
2022/08/27 06:34:35;;;;;;;8.77;2.17;;;;;;;;;;5038399;28;20048;-68
2022/08/27 06:37:01;;;;;;;11.25;2.38;;;;;;;;;;5057926;28;20404;-68
2022/08/27 06:39:27;;;;;;;8.70;2.60;;;;;;;;;;5035093;28;20143;-67
2022/08/27 06:41:53;;;;;;;7.97;2.58;;;;;;;;;;5033011;28;20049;-68
2022/08/27 06:44:20;;;;;;;7.95;1.85;;;;;;;;;;5043200;28;20098;-68
2022/08/27 06:46:47;;;;;;;10.07;1.83;;;;;;;;;;5038513;28;20508;-66
2022/08/27 06:49:14;;;;;;;8.57;1.70;;;;;;;;;;5031898;28;20033;-67
2022/08/27 06:51:44;;;;;;;7.82;1.77;;;;;;;;;;5037806;28;20112;-67
2022/08/27 06:54:12;;;;;;;7.40;2.00;;;;;;;;;;5036795;28;20075;-67
2022/08/27 06:56:38;;;;;;;8.93;1.92;;;;;;;;;;5049771;28;21612;-67
2022/08/27 06:59:06;;;;;;;8.25;1.50;;;;;;;;;;5035677;28;20403;-66
2022/08/27 07:01:35;;;;;;;10.18;1.80;;;;;;;;;;5031875;28;20546;-67
2022/08/27 07:04:03;;;;;;;13.80;2.33;;;;;;;;;;5044957;28;20452;-69
2022/08/27 07:06:30;;;;;;;12.95;2.08;;;;;;;;;;5052668;28;20517;-68
2022/08/27 07:08:56;;;;;;;9.50;1.70;;;;;;;;;;5061685;28;20468;-68
2022/08/27 07:11:23;;;;;;;7.65;1.80;;;;;;;;;;5042876;28;20053;-69
2022/08/27 07:13:50;;;;;;;13.65;2.58;;;;;;;;;;5050595;28;20053;-69
2022/08/27 07:16:18;;;;;;;8.93;2.40;;;;;;;;;;5054218;28;20052;-68
2022/08/27 07:18:44;;;;;;;12.98;2.28;;;;;;;;;;5052199;28;20072;-68
2022/08/27 07:21:10;;;;;;;10.38;2.35;;;;;;;;;;5053571;28;20094;-67
2022/08/27 07:23:37;;;;;;;8.02;1.80;;;;;;;;;;5052231;28;20043;-67
2022/08/27 07:26:08;;;;;;;5.57;1.58;;;;;;;;;;5050242;28;20048;-70
2022/08/27 07:28:34;;;;;;;10.68;2.15;;;;;;;;;;5044794;28;20140;-70
2022/08/27 07:31:00;;;;;;;11.88;2.15;;;;;;;;;;5027558;28;20073;-71
2022/08/27 07:33:26;;;;;;;10.02;1.88;;;;;;;;;;5040294;28;20045;-71
2022/08/27 07:35:53;;;;;;;6.38;1.45;;;;;;;;;;5058980;28;20037;-71
2022/08/27 07:38:19;;;;;;;9.07;1.75;;;;;;;;;;5030826;28;21992;-70
2022/08/27 07:40:46;;;;;;;9.32;1.90;;;;;;;;;;5040293;28;20123;-71
2022/08/27 07:46:00;;;;;;;11.65;2.15;;;;;;;;;;5044757;28;20136;-71
2022/08/27 07:48:26;;;;;;;7.72;1.83;;;;;;;;;;5045604;28;20049;-71
2022/08/27 07:50:53;;;;;;;10.65;2.70;;;;;;;;;;5052634;28;20091;-70
2022/08/27 07:53:20;;;;;;;7.50;1.50;;;;;;;;;;5046045;28;20307;-83
2022/08/27 07:55:46;;;;;;;9.43;1.88;;;;;;;;;;5044726;28;20099;-70
2022/08/27 07:58:14;;;;;;;9.77;2.40;;;;;;;;;;5042795;28;20092;-70
2022/08/27 08:00:41;;;;;;;10.07;1.70;;;;;;;;;;5047471;28;20041;-71
2022/08/27 08:03:08;;;;;;;8.63;1.92;;;;;;;;;;5048146;28;20075;-70
2022/08/27 08:05:34;;;;;;;11.15;1.90;;;;;;;;;;5054874;28;20036;-71
2022/08/27 08:08:00;;;;;;;7.47;1.30;;;;;;;;;;5053331;28;20559;-71
2022/08/27 08:10:26;;;;;;;10.80;2.00;;;;;;;;;;5047264;28;20037;-70
2022/08/27 08:12:52;;;;;;;7.13;1.90;;;;;;;;;;5044807;28;20042;-72
2022/08/27 08:15:19;;;;;;;11.63;1.58;;;;;;;;;;5044025;28;20415;-71
2022/08/27 08:17:45;;;;;;;9.55;1.90;;;;;;;;;;5050667;28;20052;-71
2022/08/27 08:20:12;;;;;;;9.70;1.33;;;;;;;;;;5041825;28;20049;-71
2022/08/27 08:22:39;;;;;;;5.68;1.45;;;;;;;;;;5052070;28;20052;-71
2022/08/27 08:25:05;;;;;;;8.38;1.95;;;;;;;;;;5048306;28;20119;-71
2022/08/27 08:27:31;;;;;;;10.23;1.85;;;;;;;;;;5042137;28;20180;-67
2022/08/27 08:29:59;;;;;;;11.00;2.05;;;;;;;;;;5042983;28;20055;-66
2022/08/27 08:32:25;;;;;;;11.30;2.22;;;;;;;;;;5055724;28;20040;-68
2022/08/27 08:34:51;;;;;;;11.65;2.05;;;;;;;;;;5043741;28;20048;-67
2022/08/27 08:37:18;;;;;;;7.68;1.73;;;;;;;;;;5057174;28;20040;-68
2022/08/27 08:39:44;;;;;;;6.82;1.35;;;;;;;;;;5037021;28;20477;-67
2022/08/27 08:42:23;;;;;;;9.00;1.85;;;;;;;;;;5042739;28;20053;-67
2022/08/27 08:44:52;;;;;;;6.57;1.52;;;;;;;;;;5041451;28;20040;-67
2022/08/27 08:47:23;;;;;;;13.02;1.73;;;;;;;;;;5042527;28;20059;-67
2022/08/27 08:49:53;;;;;;;5.78;1.52;;;;;;;;;;5043145;28;20044;-67
2022/08/27 08:52:28;;;;;;;11.75;1.83;;;;;;;;;;5042107;28;20123;-67
2022/08/27 08:55:05;;;;;;;8.55;1.70;;;;;;;;;;5044237;28;20059;-67
2022/08/27 08:57:35;;;;;;;10.35;1.70;;;;;;;;;;5041413;28;20103;-67
2022/08/27 09:00:08;;;;;;;5.25;1.63;;;;;;;;;;5036599;28;20041;-67
2022/08/27 09:02:34;;;;;;;9.43;1.42;;;;;;;;;;5037757;28;20437;-67
2022/08/27 09:05:04;;;;;;;6.68;1.42;;;;;;;;;;5039238;28;20034;-67
2022/08/27 09:07:44;;;;;;;9.80;2.53;;;;;;;;;;5039867;28;20164;-67
2022/08/27 09:10:10;;;;;;;8.60;1.58;;;;;;;;;;5037638;28;20389;-67
2022/08/27 09:12:36;;;;;;;8.70;1.42;;;;;;;;;;5044209;28;20064;-67
2022/08/27 09:15:23;;;;;;;7.90;1.40;;;;;;;;;;5046022;28;20050;-67
2022/08/27 09:17:49;;;;;;;8.75;1.70;;;;;;;;;;5047387;28;20487;-68
2022/08/27 09:20:18;;;;;;;12.38;2.10;;;;;;;;;;5040461;28;20063;-68
2022/08/27 09:22:57;;;;;;;10.00;2.53;;;;;;;;;;5031463;28;20041;-67
2022/08/27 09:25:30;;;;;;;9.52;1.90;;;;;;;;;;5044150;28;20037;-68
2022/08/27 09:28:00;;;;;;;7.57;1.27;;;;;;;;;;5047276;28;20066;-68
2022/08/27 09:30:33;;;;;;;7.60;1.58;;;;;;;;;;5053602;28;20533;-68
2022/08/27 09:33:03;;;;;;;7.13;1.30;;;;;;;;;;5047087;28;20102;-68
2022/08/27 09:35:36;;;;;;;7.57;1.80;;;;;;;;;;5051756;28;20427;-68
2022/08/27 09:38:03;;;;;;;7.03;1.35;;;;;;;;;;5043616;28;20488;-68
2022/08/27 09:40:30;;;;;;;7.65;1.58;;;;;;;;;;5046513;28;20049;-68
2022/08/27 09:42:58;;;;;;;6.18;1.33;;;;;;;;;;5044257;28;20434;-68
2022/08/27 09:45:26;;;;;;;8.48;1.30;;;;;;;;;;5044901;28;20124;-68
2022/08/27 09:47:54;;;;;;;8.93;1.63;;;;;;;;;;5040910;28;20493;-68
2022/08/27 09:50:22;;;;;;;9.10;1.40;;;;;;;;;;5046658;28;20037;-68
2022/08/27 09:52:53;;;;;;;6.38;1.55;;;;;;;;;;5044709;28;20454;-67
2022/08/27 09:55:27;;;;;;;7.55;1.23;;;;;;;;;;5048239;28;20709;-68
2022/08/27 09:57:53;;;;;;;5.80;1.25;;;;;;;;;;5038128;28;20515;-68
2022/08/27 10:00:28;;;;;;;7.53;1.42;;;;;;;;;;5043824;28;20045;-68
2022/08/27 10:02:54;;;;;;;6.22;1.50;;;;;;;;;;5049611;28;20064;-68
2022/08/27 10:05:28;;;;;;;5.60;1.20;;;;;;;;;;5051331;28;20037;-68
2022/08/27 10:08:01;;;;;;;7.00;1.10;;;;;;;;;;5044882;28;20444;-68
2022/08/27 10:10:34;;;;;;;10.30;3.40;;;;;;;;;;5048323;28;20106;-68
2022/08/27 10:13:00;;;;;;;37.47;24.55;;;;;;;;;;5044289;28;20484;-68
2022/08/27 10:15:29;;;;;;;11.40;5.35;;;;;;;;;;5039818;28;20044;-67
2022/08/27 10:17:55;;;;;;;9.63;1.77;;;;;;;;;;5043513;28;20045;-68
2022/08/27 10:20:28;;;;;;;5.82;1.40;;;;;;;;;;5039453;28;20061;-68
2022/08/27 10:22:55;;;;;;;5.55;1.20;;;;;;;;;;5038598;28;20515;-68
2022/08/27 10:25:25;;;;;;;5.43;1.00;;;;;;;;;;5043480;28;20059;-68
2022/08/27 10:27:51;;;;;;;5.57;1.05;;;;;;;;;;5038833;28;20048;-75
2022/08/27 10:30:19;;;;;;;5.80;1.02;;;;;;;;;;5043919;28;20056;-68
2022/08/27 10:32:46;;;;;;;311.35;68.65;;;;;;;;;;5043125;28;20040;-68
2022/08/27 10:35:21;;;;;;;9.70;1.63;;;;;;;;;;5045574;28;20480;-69
2022/08/27 10:38:08;;;;;;;8.48;1.30;;;;;;;;;;5044064;28;20479;-68
2022/08/27 10:40:45;;;;;;;9.25;1.58;;;;;;;;;;5029457;28;20060;-68
2022/08/27 10:43:12;;;;;;;7.95;1.55;;;;;;;;;;5045546;28;20040;-68
2022/08/27 10:45:42;;;;;;;6.47;1.15;;;;;;;;;;5047970;28;20089;-68
2022/08/27 10:48:14;;;;;;;10.38;1.67;;;;;;;;;;5046694;28;20043;-68
2022/08/27 10:50:47;;;;;;;5.27;1.33;;;;;;;;;;5044188;28;20114;-67
2022/08/27 10:53:21;;;;;;;7.18;1.48;;;;;;;;;;5038378;28;20530;-68
2022/08/27 10:55:51;;;;;;;9.32;1.70;;;;;;;;;;5059884;28;20143;-67
2022/08/27 10:58:27;;;;;;;8.50;1.35;;;;;;;;;;5046142;28;20041;-68
2022/08/27 11:00:57;;;;;;;7.28;1.40;;;;;;;;;;5037976;28;20073;-68
2022/08/27 11:03:32;;;;;;;8.27;1.38;;;;;;;;;;5039284;28;20459;-68
2022/08/27 11:06:00;;;;;;;7.68;1.45;;;;;;;;;;5038521;28;20037;-68
2022/08/27 11:08:32;;;;;;;10.25;1.58;;;;;;;;;;5042114;28;20084;-67
2022/08/27 11:11:02;;;;;;;6.88;1.48;;;;;;;;;;5040034;28;20061;-68
2022/08/27 11:13:32;;;;;;;9.32;1.90;;;;;;;;;;5034560;28;20517;-68
2022/08/27 11:15:59;;;;;;;32.63;6.53;;;;;;;;;;5037939;28;20068;-68
2022/08/27 11:18:34;;;;;;;10.63;1.70;;;;;;;;;;5041612;28;20064;-68
2022/08/27 11:21:04;;;;;;;5.93;1.00;;;;;;;;;;5046284;28;20051;-68
2022/08/27 11:23:39;;;;;;;9.73;1.20;;;;;;;;;;5051569;28;20040;-68
2022/08/27 11:26:06;;;;;;;8.43;1.30;;;;;;;;;;5048741;28;20056;-68
2022/08/27 11:28:42;;;;;;;4.93;1.10;;;;;;;;;;5044452;28;20176;-70
2022/08/27 11:31:16;;;;;;;5.38;1.40;;;;;;;;;;5045173;28;20387;-68
2022/08/27 11:33:47;;;;;;;3.55;0.90;;;;;;;;;;5048956;28;20102;-68
2022/08/27 11:36:26;;;;;;;9.85;1.70;;;;;;;;;;5045575;28;20045;-68
2022/08/27 11:38:58;;;;;;;6.88;1.30;;;;;;;;;;5047127;28;20058;-68
2022/08/27 11:41:49;;;;;;;7.60;1.30;;;;;;;;;;5025697;28;20068;-68
2022/08/27 11:44:17;;;;;;;5.43;1.10;;;;;;;;;;5042754;28;20049;-68
2022/08/27 11:46:46;;;;;;;5.43;1.40;;;;;;;;;;5071557;28;20052;-68
2022/08/27 11:49:22;;;;;;;6.18;1.00;;;;;;;;;;5034486;28;20055;-69
2022/08/27 11:51:55;;;;;;;10.85;1.60;;;;;;;;;;5047043;28;20132;-67
2022/08/27 11:54:25;;;;;;;7.15;1.30;;;;;;;;;;5054521;28;20052;-68
2022/08/27 11:56:52;;;;;;;5.10;1.63;;;;;;;;;;5039825;28;20131;-68
2022/08/27 11:59:25;;;;;;;6.93;1.23;;;;;;;;;;5034846;28;20041;-68
2022/08/27 12:01:52;;;;;;;5.13;1.20;;;;;;;;;;5040630;28;20460;-68
2022/08/27 12:04:21;;;;;;;7.63;1.30;;;;;;;;;;5043212;28;20345;-68
2022/08/27 12:07:01;;;;;;;9.07;1.60;;;;;;;;;;5042867;28;20044;-68
2022/08/27 12:09:27;;;;;;;8.13;1.48;;;;;;;;;;5043314;28;20044;-68
2022/08/27 12:11:59;;;;;;;111.20;12.32;;;;;;;;;;5037431;28;20119;-68
2022/08/27 12:14:27;;;;;;;9.75;1.40;;;;;;;;;;5040011;28;20116;-68
2022/08/27 12:17:02;;;;;;;5.53;1.08;;;;;;;;;;5052743;28;20040;-68
2022/08/27 12:19:32;;;;;;;7.07;1.02;;;;;;;;;;5046516;28;20472;-68
2022/08/27 12:22:12;;;;;;;5.90;1.05;;;;;;;;;;5047759;28;20373;-68
2022/08/27 12:24:48;;;;;;;14.00;1.35;;;;;;;;;;5050309;28;20051;-68
2022/08/27 12:27:25;;;;;;;5.57;1.35;;;;;;;;;;5059533;28;20067;-68
2022/08/27 12:29:54;;;;;;;9.60;1.40;;;;;;;;;;5059443;28;20041;-68
2022/08/27 12:32:29;;;;;;;6.43;1.70;;;;;;;;;;5044330;28;20157;-68
2022/08/27 12:35:05;;;;;;;7.13;1.23;;;;;;;;;;5041646;28;20223;-68
2022/08/27 12:37:34;;;;;;;9.88;1.80;;;;;;;;;;5048429;28;20298;-68
2022/08/27 12:40:03;;;;;;;8.00;1.98;;;;;;;;;;5041624;28;20488;-69
2022/08/27 12:42:29;;;;;;;7.78;2.38;;;;;;;;;;5040848;28;20040;-68
2022/08/27 12:44:56;;;;;;;10.30;2.55;;;;;;;;;;5042732;28;20048;-69
2022/08/27 12:47:23;;;;;;;12.02;2.28;;;;;;;;;;5043303;28;20087;-68
2022/08/27 12:49:52;;;;;;;9.60;2.20;;;;;;;;;;5039120;28;20472;-68
2022/08/27 12:52:36;;;;;;;7.88;2.17;;;;;;;;;;5036470;28;20052;-68
2022/08/27 12:55:03;;;;;;;9.68;2.20;;;;;;;;;;5076122;28;20041;-68
2022/08/27 12:57:36;;;;;;;8.32;2.10;;;;;;;;;;5038945;28;20796;-68
2022/08/27 13:00:11;;;;;;;6.72;1.95;;;;;;;;;;5035072;28;20403;-68
2022/08/27 13:02:44;;;;;;;7.38;2.17;;;;;;;;;;5042917;28;20076;-68
2022/08/27 13:05:10;;;;;;;6.90;1.92;;;;;;;;;;5032313;28;20178;-68
2022/08/27 13:07:42;;;;;;;7.70;2.17;;;;;;;;;;5042368;28;20043;-68
2022/08/27 13:10:11;;;;;;;9.45;2.08;;;;;;;;;;5038793;28;20033;-69
2022/08/27 13:12:38;;;;;;;6.78;1.98;;;;;;;;;;5045168;28;20049;-68
2022/08/27 13:15:09;;;;;;;5.38;1.77;;;;;;;;;;5042454;28;20555;-67
2022/08/27 13:17:38;;;;;;;9.90;2.33;;;;;;;;;;5047997;28;20411;-67
2022/08/27 13:20:13;;;;;;;11.95;2.42;;;;;;;;;;5044066;28;20128;-68
2022/08/27 13:22:42;;;;;;;11.68;2.08;;;;;;;;;;5045902;28;20089;-67
2022/08/27 13:25:19;;;;;;;10.20;1.80;;;;;;;;;;5043666;28;20127;-67
2022/08/27 13:27:51;;;;;;;7.43;1.90;;;;;;;;;;5043295;28;20914;-68
2022/08/27 13:30:17;;;;;;;12.38;2.47;;;;;;;;;;5041465;28;20473;-68
2022/08/27 13:32:44;;;;;;;10.40;2.47;;;;;;;;;;5044150;28;20037;-68
2022/08/27 13:35:11;;;;;;;11.05;2.53;;;;;;;;;;5041578;28;20037;-68
2022/08/27 13:37:44;;;;;;;7.53;2.20;;;;;;;;;;5052626;28;20163;-68
2022/08/27 13:40:10;;;;;;;;;;;;;;;;;;5059549;28;20123;-68
2022/08/27 13:42:39;;;;;;;14.90;2.97;;;;;;;;;;5041730;28;19984;-68
2022/08/27 13:45:06;;;;;;;12.85;2.63;;;;;;;;;;5037049;28;20086;-68
2022/08/27 13:47:39;;;;;;;9.38;2.58;;;;;;;;;;5040720;28;20499;-68
2022/08/27 13:50:07;;;;;;;9.27;2.17;;;;;;;;;;5046728;28;20040;-68
2022/08/27 13:52:34;;;;;;;9.57;2.13;;;;;;;;;;5039433;28;20144;-68
2022/08/27 13:55:05;;;;;;;6.10;1.70;;;;;;;;;;5043405;28;20057;-68
2022/08/27 13:57:40;;;;;;;8.07;2.20;;;;;;;;;;5031391;28;20041;-68
2022/08/27 14:00:13;;;;;;;11.88;2.97;;;;;;;;;;5036088;28;20045;-68
2022/08/27 14:02:41;;;;;;;;;;;;;;;;;;5038594;28;20049;-68
2022/08/27 14:05:10;;;;;;;5.07;2.10;;;;;;;;;;5039255;28;19921;-68
2022/08/27 14:07:43;;;;;;;12.02;2.58;;;;;;;;;;5031706;28;20049;-68
2022/08/27 14:10:09;;;;;;;;;;;;;;;;;;5041757;28;20134;-68
2022/08/27 14:12:37;;;;;;;9.20;2.67;;;;;;;;;;5041216;28;20059;-68
2022/08/27 14:15:21;;;;;;;8.85;2.58;;;;;;;;;;5045305;28;20052;-68
2022/08/27 14:17:47;;;;;;;10.15;2.50;;;;;;;;;;5040674;28;20158;-68
2022/08/27 14:20:14;;;;;;;7.18;2.28;;;;;;;;;;5039701;28;20045;-68
2022/08/27 14:22:41;;;;;;;5.00;2.00;;;;;;;;;;5041032;28;20407;-68
2022/08/27 14:25:08;;;;;;;7.65;2.10;;;;;;;;;;5033578;28;20057;-68
2022/08/27 14:27:35;;;;;;;12.32;2.47;;;;;;;;;;5042531;28;20107;-67
2022/08/27 14:30:01;;;;;;;9.50;2.25;;;;;;;;;;5037096;28;20041;-68
2022/08/27 14:32:27;;;;;;;7.20;2.33;;;;;;;;;;5038087;28;20079;-68
2022/08/27 14:34:53;;;;;;;8.57;2.38;;;;;;;;;;5038352;28;20052;-67
2022/08/27 14:37:20;;;;;;;9.52;2.28;;;;;;;;;;5035314;28;20037;-68
2022/08/27 14:39:46;;;;;;;10.32;2.17;;;;;;;;;;5037851;28;20045;-68
2022/08/27 14:42:12;;;;;;;7.72;2.20;;;;;;;;;;5036922;28;20044;-67
2022/08/27 14:44:39;;;;;;;8.52;2.85;;;;;;;;;;5051809;28;20075;-67
2022/08/27 14:47:06;;;;;;;9.50;2.63;;;;;;;;;;5050869;28;20156;-68
2022/08/27 14:49:33;;;;;;;12.27;2.45;;;;;;;;;;5044591;28;20080;-67
2022/08/27 14:52:01;;;;;;;9.25;2.25;;;;;;;;;;5034864;28;20045;-68
2022/08/27 14:54:28;;;;;;;8.93;2.42;;;;;;;;;;5040445;28;20077;-68